sensor_id;sensor_type;location;lat;lon;timestamp;P1;durP1;ratioP1;P2;durP2;ratioP2
69744;SDS011;57015;50.120;-5.168;2022-08-20T00:00:12;8.40;;;1.03;;
69744;SDS011;57015;50.120;-5.168;2022-08-20T00:02:45;6.82;;;0.98;;
69744;SDS011;57015;50.120;-5.168;2022-08-20T00:05:13;4.78;;;0.90;;
69744;SDS011;57015;50.120;-5.168;2022-08-20T00:07:39;9.75;;;1.48;;
69744;SDS011;57015;50.120;-5.168;2022-08-20T00:10:05;4.50;;;0.80;;
69744;SDS011;57015;50.120;-5.168;2022-08-20T00:12:33;8.48;;;1.00;;
69744;SDS011;57015;50.120;-5.168;2022-08-20T00:14:59;9.20;;;1.13;;
69744;SDS011;57015;50.120;-5.168;2022-08-20T00:17:24;6.40;;;1.13;;
69744;SDS011;57015;50.120;-5.168;2022-08-20T00:19:50;7.87;;;1.00;;
69744;SDS011;57015;50.120;-5.168;2022-08-20T00:22:15;6.43;;;0.80;;
69744;SDS011;57015;50.120;-5.168;2022-08-20T00:24:40;4.60;;;1.00;;
69744;SDS011;57015;50.120;-5.168;2022-08-20T00:27:07;8.02;;;0.98;;
69744;SDS011;57015;50.120;-5.168;2022-08-20T00:29:32;5.00;;;0.70;;
69744;SDS011;57015;50.120;-5.168;2022-08-20T00:31:58;6.53;;;0.80;;
69744;SDS011;57015;50.120;-5.168;2022-08-20T00:34:23;7.05;;;0.88;;
69744;SDS011;57015;50.120;-5.168;2022-08-20T00:36:49;6.50;;;1.00;;
69744;SDS011;57015;50.120;-5.168;2022-08-20T00:39:14;7.47;;;0.70;;
69744;SDS011;57015;50.120;-5.168;2022-08-20T00:41:40;5.82;;;1.10;;
69744;SDS011;57015;50.120;-5.168;2022-08-20T00:44:10;7.05;;;1.20;;
69744;SDS011;57015;50.120;-5.168;2022-08-20T00:46:40;5.13;;;1.00;;
69744;SDS011;57015;50.120;-5.168;2022-08-20T00:49:07;8.05;;;1.00;;
69744;SDS011;57015;50.120;-5.168;2022-08-20T00:54:14;7.65;;;0.80;;
69744;SDS011;57015;50.120;-5.168;2022-08-20T00:56:40;7.32;;;1.45;;
69744;SDS011;57015;50.120;-5.168;2022-08-20T00:59:09;10.13;;;1.40;;
69744;SDS011;57015;50.120;-5.168;2022-08-20T01:01:40;8.15;;;0.90;;
69744;SDS011;57015;50.120;-5.168;2022-08-20T01:04:07;9.70;;;1.67;;
69744;SDS011;57015;50.120;-5.168;2022-08-20T01:06:35;12.02;;;1.58;;
69744;SDS011;57015;50.120;-5.168;2022-08-20T01:09:04;8.85;;;1.17;;
69744;SDS011;57015;50.120;-5.168;2022-08-20T01:11:30;7.93;;;1.00;;
69744;SDS011;57015;50.120;-5.168;2022-08-20T01:13:59;8.32;;;1.30;;
69744;SDS011;57015;50.120;-5.168;2022-08-20T01:16:28;6.80;;;0.98;;
69744;SDS011;57015;50.120;-5.168;2022-08-20T01:18:55;9.32;;;1.30;;
69744;SDS011;57015;50.120;-5.168;2022-08-20T01:21:25;5.88;;;0.77;;
69744;SDS011;57015;50.120;-5.168;2022-08-20T01:26:37;8.85;;;0.88;;
69744;SDS011;57015;50.120;-5.168;2022-08-20T01:29:06;8.43;;;1.20;;
69744;SDS011;57015;50.120;-5.168;2022-08-20T01:31:53;4.93;;;1.10;;
69744;SDS011;57015;50.120;-5.168;2022-08-20T01:34:25;10.25;;;0.90;;
69744;SDS011;57015;50.120;-5.168;2022-08-20T01:36:52;8.07;;;0.90;;
69744;SDS011;57015;50.120;-5.168;2022-08-20T01:39:26;6.85;;;0.90;;
69744;SDS011;57015;50.120;-5.168;2022-08-20T01:41:59;8.73;;;1.27;;
69744;SDS011;57015;50.120;-5.168;2022-08-20T01:44:28;7.55;;;0.90;;
69744;SDS011;57015;50.120;-5.168;2022-08-20T01:46:54;9.07;;;1.20;;
69744;SDS011;57015;50.120;-5.168;2022-08-20T01:49:23;9.57;;;1.07;;
69744;SDS011;57015;50.120;-5.168;2022-08-20T01:51:52;9.85;;;1.02;;
69744;SDS011;57015;50.120;-5.168;2022-08-20T01:54:18;5.95;;;0.85;;
69744;SDS011;57015;50.120;-5.168;2022-08-20T01:56:52;5.72;;;1.08;;
69744;SDS011;57015;50.120;-5.168;2022-08-20T01:59:22;5.57;;;0.90;;
69744;SDS011;57015;50.120;-5.168;2022-08-20T02:01:48;7.87;;;0.80;;
69744;SDS011;57015;50.120;-5.168;2022-08-20T02:04:15;8.45;;;1.10;;
69744;SDS011;57015;50.120;-5.168;2022-08-20T02:06:43;6.85;;;0.70;;
69744;SDS011;57015;50.120;-5.168;2022-08-20T02:09:11;3.97;;;0.63;;
69744;SDS011;57015;50.120;-5.168;2022-08-20T02:11:37;7.15;;;0.73;;
69744;SDS011;57015;50.120;-5.168;2022-08-20T02:14:04;6.38;;;1.10;;
69744;SDS011;57015;50.120;-5.168;2022-08-20T02:16:33;6.82;;;1.05;;
69744;SDS011;57015;50.120;-5.168;2022-08-20T02:19:02;7.13;;;0.90;;
69744;SDS011;57015;50.120;-5.168;2022-08-20T02:21:33;5.72;;;0.93;;
69744;SDS011;57015;50.120;-5.168;2022-08-20T02:23:59;7.20;;;0.90;;
69744;SDS011;57015;50.120;-5.168;2022-08-20T02:26:25;9.20;;;0.93;;
69744;SDS011;57015;50.120;-5.168;2022-08-20T02:28:51;4.75;;;0.75;;
69744;SDS011;57015;50.120;-5.168;2022-08-20T02:31:17;9.15;;;1.10;;
69744;SDS011;57015;50.120;-5.168;2022-08-20T02:33:44;7.30;;;0.70;;
69744;SDS011;57015;50.120;-5.168;2022-08-20T02:36:11;4.70;;;0.40;;
69744;SDS011;57015;50.120;-5.168;2022-08-20T02:38:41;6.15;;;0.80;;
69744;SDS011;57015;50.120;-5.168;2022-08-20T02:41:07;5.85;;;0.98;;
69744;SDS011;57015;50.120;-5.168;2022-08-20T02:43:33;4.90;;;1.03;;
69744;SDS011;57015;50.120;-5.168;2022-08-20T02:45:59;4.93;;;0.68;;
69744;SDS011;57015;50.120;-5.168;2022-08-20T02:48:25;6.93;;;1.00;;
69744;SDS011;57015;50.120;-5.168;2022-08-20T02:50:53;5.50;;;0.50;;
69744;SDS011;57015;50.120;-5.168;2022-08-20T02:53:21;4.70;;;0.63;;
69744;SDS011;57015;50.120;-5.168;2022-08-20T02:55:46;7.72;;;1.25;;
69744;SDS011;57015;50.120;-5.168;2022-08-20T02:58:12;8.80;;;0.73;;
69744;SDS011;57015;50.120;-5.168;2022-08-20T03:00:37;8.77;;;1.15;;
69744;SDS011;57015;50.120;-5.168;2022-08-20T03:03:05;11.50;;;1.35;;
69744;SDS011;57015;50.120;-5.168;2022-08-20T03:05:33;6.57;;;0.85;;
69744;SDS011;57015;50.120;-5.168;2022-08-20T03:07:58;7.35;;;0.60;;
69744;SDS011;57015;50.120;-5.168;2022-08-20T03:10:31;6.27;;;0.90;;
69744;SDS011;57015;50.120;-5.168;2022-08-20T03:12:58;7.25;;;0.70;;
69744;SDS011;57015;50.120;-5.168;2022-08-20T03:15:26;8.23;;;0.52;;
69744;SDS011;57015;50.120;-5.168;2022-08-20T03:17:53;8.63;;;0.95;;
69744;SDS011;57015;50.120;-5.168;2022-08-20T03:20:18;5.10;;;0.73;;
69744;SDS011;57015;50.120;-5.168;2022-08-20T03:22:44;7.10;;;0.70;;
69744;SDS011;57015;50.120;-5.168;2022-08-20T03:25:10;7.13;;;0.70;;
69744;SDS011;57015;50.120;-5.168;2022-08-20T03:27:36;5.47;;;0.80;;
69744;SDS011;57015;50.120;-5.168;2022-08-20T03:30:05;5.10;;;0.70;;
69744;SDS011;57015;50.120;-5.168;2022-08-20T03:32:32;5.22;;;0.82;;
69744;SDS011;57015;50.120;-5.168;2022-08-20T03:34:58;5.53;;;0.80;;
69744;SDS011;57015;50.120;-5.168;2022-08-20T03:37:23;3.70;;;0.60;;
69744;SDS011;57015;50.120;-5.168;2022-08-20T03:39:49;7.68;;;0.80;;
69744;SDS011;57015;50.120;-5.168;2022-08-20T03:42:14;5.70;;;0.57;;
69744;SDS011;57015;50.120;-5.168;2022-08-20T03:44:40;7.37;;;0.90;;
69744;SDS011;57015;50.120;-5.168;2022-08-20T03:47:05;4.47;;;0.67;;
69744;SDS011;57015;50.120;-5.168;2022-08-20T03:49:33;6.47;;;1.20;;
69744;SDS011;57015;50.120;-5.168;2022-08-20T03:52:00;2.22;;;0.38;;
69744;SDS011;57015;50.120;-5.168;2022-08-20T03:54:27;8.10;;;0.77;;
69744;SDS011;57015;50.120;-5.168;2022-08-20T03:56:53;4.97;;;0.60;;
69744;SDS011;57015;50.120;-5.168;2022-08-20T03:59:18;5.90;;;0.70;;
69744;SDS011;57015;50.120;-5.168;2022-08-20T04:01:44;7.38;;;0.85;;
69744;SDS011;57015;50.120;-5.168;2022-08-20T04:04:09;3.15;;;0.70;;
69744;SDS011;57015;50.120;-5.168;2022-08-20T04:06:35;4.50;;;0.50;;
69744;SDS011;57015;50.120;-5.168;2022-08-20T04:09:00;6.27;;;0.70;;
69744;SDS011;57015;50.120;-5.168;2022-08-20T04:11:26;5.80;;;0.60;;
69744;SDS011;57015;50.120;-5.168;2022-08-20T04:13:51;3.83;;;0.60;;
69744;SDS011;57015;50.120;-5.168;2022-08-20T04:16:16;3.93;;;0.70;;
69744;SDS011;57015;50.120;-5.168;2022-08-20T04:18:42;5.90;;;1.00;;
69744;SDS011;57015;50.120;-5.168;2022-08-20T04:21:07;4.83;;;0.67;;
69744;SDS011;57015;50.120;-5.168;2022-08-20T04:23:33;4.88;;;0.73;;
69744;SDS011;57015;50.120;-5.168;2022-08-20T04:25:58;3.17;;;0.68;;
69744;SDS011;57015;50.120;-5.168;2022-08-20T04:28:24;3.13;;;0.70;;
69744;SDS011;57015;50.120;-5.168;2022-08-20T04:30:54;6.47;;;1.05;;
69744;SDS011;57015;50.120;-5.168;2022-08-20T04:33:21;5.68;;;0.73;;
69744;SDS011;57015;50.120;-5.168;2022-08-20T04:35:49;4.85;;;0.60;;
69744;SDS011;57015;50.120;-5.168;2022-08-20T04:38:15;6.17;;;1.03;;
69744;SDS011;57015;50.120;-5.168;2022-08-20T04:40:42;3.35;;;0.50;;
69744;SDS011;57015;50.120;-5.168;2022-08-20T04:43:31;4.97;;;0.52;;
69744;SDS011;57015;50.120;-5.168;2022-08-20T04:45:59;4.13;;;0.73;;
69744;SDS011;57015;50.120;-5.168;2022-08-20T04:48:26;5.35;;;0.73;;
69744;SDS011;57015;50.120;-5.168;2022-08-20T04:50:52;6.85;;;0.95;;
69744;SDS011;57015;50.120;-5.168;2022-08-20T04:53:20;5.20;;;0.80;;
69744;SDS011;57015;50.120;-5.168;2022-08-20T04:55:47;7.87;;;0.50;;
69744;SDS011;57015;50.120;-5.168;2022-08-20T04:58:15;4.47;;;0.47;;
69744;SDS011;57015;50.120;-5.168;2022-08-20T05:00:49;3.55;;;0.63;;
69744;SDS011;57015;50.120;-5.168;2022-08-20T05:03:16;1.90;;;0.45;;
69744;SDS011;57015;50.120;-5.168;2022-08-20T05:05:41;4.43;;;0.57;;
69744;SDS011;57015;50.120;-5.168;2022-08-20T05:08:07;5.30;;;0.63;;
69744;SDS011;57015;50.120;-5.168;2022-08-20T05:10:33;5.60;;;0.90;;
69744;SDS011;57015;50.120;-5.168;2022-08-20T05:13:00;4.80;;;0.73;;
69744;SDS011;57015;50.120;-5.168;2022-08-20T05:15:26;6.30;;;0.50;;
69744;SDS011;57015;50.120;-5.168;2022-08-20T05:17:55;2.77;;;0.57;;
69744;SDS011;57015;50.120;-5.168;2022-08-20T05:20:24;4.45;;;0.95;;
69744;SDS011;57015;50.120;-5.168;2022-08-20T05:22:51;5.43;;;0.70;;
69744;SDS011;57015;50.120;-5.168;2022-08-20T05:25:18;5.03;;;0.70;;
69744;SDS011;57015;50.120;-5.168;2022-08-20T05:27:45;2.97;;;0.50;;
69744;SDS011;57015;50.120;-5.168;2022-08-20T05:30:11;3.20;;;0.73;;
69744;SDS011;57015;50.120;-5.168;2022-08-20T05:32:36;2.17;;;0.43;;
69744;SDS011;57015;50.120;-5.168;2022-08-20T05:35:04;4.05;;;0.65;;
69744;SDS011;57015;50.120;-5.168;2022-08-20T05:37:34;2.70;;;0.50;;
69744;SDS011;57015;50.120;-5.168;2022-08-20T05:40:00;4.85;;;0.60;;
69744;SDS011;57015;50.120;-5.168;2022-08-20T05:42:26;4.53;;;0.80;;
69744;SDS011;57015;50.120;-5.168;2022-08-20T05:44:53;4.32;;;0.60;;
69744;SDS011;57015;50.120;-5.168;2022-08-20T05:47:18;3.53;;;0.83;;
69744;SDS011;57015;50.120;-5.168;2022-08-20T05:49:43;4.57;;;0.83;;
69744;SDS011;57015;50.120;-5.168;2022-08-20T05:52:10;3.75;;;0.57;;
69744;SDS011;57015;50.120;-5.168;2022-08-20T05:54:36;4.68;;;0.88;;
69744;SDS011;57015;50.120;-5.168;2022-08-20T05:57:02;5.50;;;0.43;;
69744;SDS011;57015;50.120;-5.168;2022-08-20T05:59:28;4.25;;;0.85;;
69744;SDS011;57015;50.120;-5.168;2022-08-20T06:01:53;3.93;;;0.60;;
69744;SDS011;57015;50.120;-5.168;2022-08-20T06:04:18;4.20;;;0.60;;
69744;SDS011;57015;50.120;-5.168;2022-08-20T06:06:56;5.72;;;0.95;;
69744;SDS011;57015;50.120;-5.168;2022-08-20T06:09:26;3.78;;;0.65;;
69744;SDS011;57015;50.120;-5.168;2022-08-20T06:11:51;3.75;;;0.60;;
69744;SDS011;57015;50.120;-5.168;2022-08-20T06:14:17;2.27;;;0.43;;
69744;SDS011;57015;50.120;-5.168;2022-08-20T06:16:44;2.92;;;0.60;;
69744;SDS011;57015;50.120;-5.168;2022-08-20T06:19:09;1.43;;;0.23;;
69744;SDS011;57015;50.120;-5.168;2022-08-20T06:21:35;2.33;;;0.47;;
69744;SDS011;57015;50.120;-5.168;2022-08-20T06:24:00;4.97;;;0.50;;
69744;SDS011;57015;50.120;-5.168;2022-08-20T06:26:26;4.43;;;0.83;;
69744;SDS011;57015;50.120;-5.168;2022-08-20T06:28:52;1.90;;;0.40;;
69744;SDS011;57015;50.120;-5.168;2022-08-20T06:31:18;3.40;;;0.90;;
69744;SDS011;57015;50.120;-5.168;2022-08-20T06:33:43;6.80;;;0.70;;
69744;SDS011;57015;50.120;-5.168;2022-08-20T06:36:09;6.30;;;0.70;;
69744;SDS011;57015;50.120;-5.168;2022-08-20T06:38:34;4.60;;;0.60;;
69744;SDS011;57015;50.120;-5.168;2022-08-20T06:40:59;3.77;;;0.60;;
69744;SDS011;57015;50.120;-5.168;2022-08-20T06:43:25;4.65;;;0.65;;
69744;SDS011;57015;50.120;-5.168;2022-08-20T06:45:50;4.17;;;0.80;;
69744;SDS011;57015;50.120;-5.168;2022-08-20T06:48:16;5.90;;;0.70;;
69744;SDS011;57015;50.120;-5.168;2022-08-20T06:50:45;5.65;;;0.55;;
69744;SDS011;57015;50.120;-5.168;2022-08-20T06:53:13;3.00;;;0.97;;
69744;SDS011;57015;50.120;-5.168;2022-08-20T06:55:41;3.13;;;0.35;;
69744;SDS011;57015;50.120;-5.168;2022-08-20T06:58:09;4.30;;;0.77;;
69744;SDS011;57015;50.120;-5.168;2022-08-20T07:00:35;7.63;;;1.00;;
69744;SDS011;57015;50.120;-5.168;2022-08-20T07:03:02;5.50;;;0.70;;
69744;SDS011;57015;50.120;-5.168;2022-08-20T07:05:28;5.50;;;0.80;;
69744;SDS011;57015;50.120;-5.168;2022-08-20T07:07:54;4.97;;;1.00;;
69744;SDS011;57015;50.120;-5.168;2022-08-20T07:10:20;8.50;;;1.00;;
69744;SDS011;57015;50.120;-5.168;2022-08-20T07:12:46;5.15;;;0.95;;
69744;SDS011;57015;50.120;-5.168;2022-08-20T07:15:14;8.13;;;0.82;;
69744;SDS011;57015;50.120;-5.168;2022-08-20T07:17:39;5.00;;;0.70;;
69744;SDS011;57015;50.120;-5.168;2022-08-20T07:20:06;13.07;;;1.20;;
69744;SDS011;57015;50.120;-5.168;2022-08-20T07:22:39;8.27;;;1.92;;
69744;SDS011;57015;50.120;-5.168;2022-08-20T07:25:05;10.15;;;1.10;;
69744;SDS011;57015;50.120;-5.168;2022-08-20T07:27:32;11.50;;;1.30;;
69744;SDS011;57015;50.120;-5.168;2022-08-20T07:29:57;7.50;;;1.25;;
69744;SDS011;57015;50.120;-5.168;2022-08-20T07:32:42;10.43;;;1.47;;
69744;SDS011;57015;50.120;-5.168;2022-08-20T07:35:10;13.73;;;1.77;;
69744;SDS011;57015;50.120;-5.168;2022-08-20T07:37:41;14.25;;;1.88;;
69744;SDS011;57015;50.120;-5.168;2022-08-20T07:40:10;9.13;;;1.35;;
69744;SDS011;57015;50.120;-5.168;2022-08-20T07:42:37;9.35;;;1.65;;
69744;SDS011;57015;50.120;-5.168;2022-08-20T07:45:03;11.63;;;2.33;;
69744;SDS011;57015;50.120;-5.168;2022-08-20T07:47:30;12.48;;;1.40;;
69744;SDS011;57015;50.120;-5.168;2022-08-20T07:49:58;17.98;;;1.42;;
69744;SDS011;57015;50.120;-5.168;2022-08-20T07:52:23;15.47;;;1.93;;
69744;SDS011;57015;50.120;-5.168;2022-08-20T07:54:49;10.77;;;1.60;;
69744;SDS011;57015;50.120;-5.168;2022-08-20T07:57:14;14.10;;;1.60;;
69744;SDS011;57015;50.120;-5.168;2022-08-20T07:59:41;9.35;;;1.10;;
69744;SDS011;57015;50.120;-5.168;2022-08-20T08:02:06;12.80;;;1.87;;
69744;SDS011;57015;50.120;-5.168;2022-08-20T08:04:32;10.03;;;1.63;;
69744;SDS011;57015;50.120;-5.168;2022-08-20T08:06:57;12.07;;;1.70;;
69744;SDS011;57015;50.120;-5.168;2022-08-20T08:09:24;10.98;;;1.58;;
69744;SDS011;57015;50.120;-5.168;2022-08-20T08:11:50;17.25;;;2.08;;
69744;SDS011;57015;50.120;-5.168;2022-08-20T08:14:20;11.60;;;2.08;;
69744;SDS011;57015;50.120;-5.168;2022-08-20T08:16:51;12.97;;;1.70;;
69744;SDS011;57015;50.120;-5.168;2022-08-20T08:19:18;11.55;;;1.80;;
69744;SDS011;57015;50.120;-5.168;2022-08-20T08:21:44;9.53;;;1.40;;
69744;SDS011;57015;50.120;-5.168;2022-08-20T08:24:09;8.65;;;1.20;;
69744;SDS011;57015;50.120;-5.168;2022-08-20T08:26:35;8.77;;;1.43;;
69744;SDS011;57015;50.120;-5.168;2022-08-20T08:29:01;11.13;;;1.67;;
69744;SDS011;57015;50.120;-5.168;2022-08-20T08:31:26;11.10;;;1.93;;
69744;SDS011;57015;50.120;-5.168;2022-08-20T08:33:52;11.07;;;1.63;;
69744;SDS011;57015;50.120;-5.168;2022-08-20T08:36:17;11.20;;;1.70;;
69744;SDS011;57015;50.120;-5.168;2022-08-20T08:38:43;7.77;;;1.00;;
69744;SDS011;57015;50.120;-5.168;2022-08-20T08:41:32;11.25;;;1.75;;
69744;SDS011;57015;50.120;-5.168;2022-08-20T08:44:10;9.00;;;1.13;;
69744;SDS011;57015;50.120;-5.168;2022-08-20T08:46:59;16.23;;;1.83;;
69744;SDS011;57015;50.120;-5.168;2022-08-20T08:49:28;15.00;;;2.03;;
69744;SDS011;57015;50.120;-5.168;2022-08-20T08:51:58;9.30;;;1.15;;
69744;SDS011;57015;50.120;-5.168;2022-08-20T08:54:26;11.38;;;1.48;;
69744;SDS011;57015;50.120;-5.168;2022-08-20T08:56:53;9.85;;;1.88;;
69744;SDS011;57015;50.120;-5.168;2022-08-20T08:59:19;12.17;;;1.40;;
69744;SDS011;57015;50.120;-5.168;2022-08-20T09:01:48;14.35;;;1.50;;
69744;SDS011;57015;50.120;-5.168;2022-08-20T09:04:17;11.73;;;1.30;;
69744;SDS011;57015;50.120;-5.168;2022-08-20T09:06:46;6.13;;;1.23;;
69744;SDS011;57015;50.120;-5.168;2022-08-20T09:09:31;7.93;;;1.02;;
69744;SDS011;57015;50.120;-5.168;2022-08-20T09:12:07;10.20;;;1.35;;
69744;SDS011;57015;50.120;-5.168;2022-08-20T09:14:34;11.00;;;1.45;;
69744;SDS011;57015;50.120;-5.168;2022-08-20T09:17:00;11.60;;;1.67;;
69744;SDS011;57015;50.120;-5.168;2022-08-20T09:19:26;12.47;;;2.17;;
69744;SDS011;57015;50.120;-5.168;2022-08-20T09:21:51;11.10;;;1.60;;
69744;SDS011;57015;50.120;-5.168;2022-08-20T09:24:17;9.10;;;1.50;;
69744;SDS011;57015;50.120;-5.168;2022-08-20T09:26:42;16.55;;;1.65;;
69744;SDS011;57015;50.120;-5.168;2022-08-20T09:29:08;16.70;;;1.83;;
69744;SDS011;57015;50.120;-5.168;2022-08-20T09:31:34;9.77;;;1.50;;
69744;SDS011;57015;50.120;-5.168;2022-08-20T09:33:59;8.37;;;1.40;;
69744;SDS011;57015;50.120;-5.168;2022-08-20T09:36:25;7.57;;;1.33;;
69744;SDS011;57015;50.120;-5.168;2022-08-20T09:38:51;9.93;;;1.52;;
69744;SDS011;57015;50.120;-5.168;2022-08-20T09:41:17;12.45;;;1.45;;
69744;SDS011;57015;50.120;-5.168;2022-08-20T09:43:43;9.70;;;1.27;;
69744;SDS011;57015;50.120;-5.168;2022-08-20T09:46:08;6.53;;;0.87;;
69744;SDS011;57015;50.120;-5.168;2022-08-20T09:48:33;11.57;;;1.30;;
69744;SDS011;57015;50.120;-5.168;2022-08-20T09:50:59;9.10;;;1.30;;
69744;SDS011;57015;50.120;-5.168;2022-08-20T09:53:24;9.20;;;1.38;;
69744;SDS011;57015;50.120;-5.168;2022-08-20T09:55:53;10.43;;;1.30;;
69744;SDS011;57015;50.120;-5.168;2022-08-20T10:01:17;10.17;;;1.40;;
69744;SDS011;57015;50.120;-5.168;2022-08-20T10:03:44;11.98;;;1.60;;
69744;SDS011;57015;50.120;-5.168;2022-08-20T10:06:13;10.75;;;1.67;;
69744;SDS011;57015;50.120;-5.168;2022-08-20T10:08:40;10.52;;;1.00;;
69744;SDS011;57015;50.120;-5.168;2022-08-20T10:11:06;9.18;;;1.45;;
69744;SDS011;57015;50.120;-5.168;2022-08-20T10:13:32;10.10;;;1.20;;
69744;SDS011;57015;50.120;-5.168;2022-08-20T10:15:57;11.50;;;1.63;;
69744;SDS011;57015;50.120;-5.168;2022-08-20T10:18:22;9.00;;;1.10;;
69744;SDS011;57015;50.120;-5.168;2022-08-20T10:20:48;16.80;;;2.53;;
69744;SDS011;57015;50.120;-5.168;2022-08-20T10:23:13;9.30;;;1.40;;
69744;SDS011;57015;50.120;-5.168;2022-08-20T10:25:39;13.57;;;1.40;;
69744;SDS011;57015;50.120;-5.168;2022-08-20T10:28:05;7.93;;;1.60;;
69744;SDS011;57015;50.120;-5.168;2022-08-20T10:30:31;11.82;;;1.63;;
69744;SDS011;57015;50.120;-5.168;2022-08-20T10:32:57;11.60;;;1.85;;
69744;SDS011;57015;50.120;-5.168;2022-08-20T10:35:22;13.50;;;1.87;;
69744;SDS011;57015;50.120;-5.168;2022-08-20T10:37:48;12.67;;;2.10;;
69744;SDS011;57015;50.120;-5.168;2022-08-20T10:40:13;10.48;;;1.83;;
69744;SDS011;57015;50.120;-5.168;2022-08-20T10:42:40;9.77;;;1.20;;
69744;SDS011;57015;50.120;-5.168;2022-08-20T10:45:07;9.52;;;1.10;;
69744;SDS011;57015;50.120;-5.168;2022-08-20T10:47:36;7.63;;;1.33;;
69744;SDS011;57015;50.120;-5.168;2022-08-20T10:50:02;10.75;;;1.40;;
69744;SDS011;57015;50.120;-5.168;2022-08-20T10:52:29;8.23;;;1.40;;
69744;SDS011;57015;50.120;-5.168;2022-08-20T10:54:55;7.78;;;1.10;;
69744;SDS011;57015;50.120;-5.168;2022-08-20T10:57:21;7.53;;;1.35;;
69744;SDS011;57015;50.120;-5.168;2022-08-20T10:59:49;6.83;;;1.30;;
69744;SDS011;57015;50.120;-5.168;2022-08-20T11:02:16;9.57;;;1.52;;
69744;SDS011;57015;50.120;-5.168;2022-08-20T11:04:42;11.52;;;1.25;;
69744;SDS011;57015;50.120;-5.168;2022-08-20T11:07:09;9.75;;;1.38;;
69744;SDS011;57015;50.120;-5.168;2022-08-20T11:09:55;9.97;;;1.20;;
69744;SDS011;57015;50.120;-5.168;2022-08-20T11:12:20;11.88;;;1.67;;
69744;SDS011;57015;50.120;-5.168;2022-08-20T11:14:46;11.10;;;1.70;;
69744;SDS011;57015;50.120;-5.168;2022-08-20T11:17:18;8.93;;;1.48;;
69744;SDS011;57015;50.120;-5.168;2022-08-20T11:19:45;10.82;;;2.40;;
69744;SDS011;57015;50.120;-5.168;2022-08-20T11:22:10;13.23;;;1.47;;
69744;SDS011;57015;50.120;-5.168;2022-08-20T11:24:36;10.87;;;1.40;;
69744;SDS011;57015;50.120;-5.168;2022-08-20T11:27:02;11.05;;;1.70;;
69744;SDS011;57015;50.120;-5.168;2022-08-20T11:29:34;17.17;;;1.50;;
69744;SDS011;57015;50.120;-5.168;2022-08-20T11:32:00;8.85;;;1.25;;
69744;SDS011;57015;50.120;-5.168;2022-08-20T11:34:26;8.80;;;1.33;;
69744;SDS011;57015;50.120;-5.168;2022-08-20T11:36:51;7.80;;;1.43;;
69744;SDS011;57015;50.120;-5.168;2022-08-20T11:39:17;12.48;;;1.00;;
69744;SDS011;57015;50.120;-5.168;2022-08-20T11:41:42;7.73;;;1.40;;
69744;SDS011;57015;50.120;-5.168;2022-08-20T11:44:08;15.97;;;2.10;;
69744;SDS011;57015;50.120;-5.168;2022-08-20T11:46:33;11.27;;;1.50;;
69744;SDS011;57015;50.120;-5.168;2022-08-20T11:48:59;10.30;;;2.07;;
69744;SDS011;57015;50.120;-5.168;2022-08-20T11:51:24;8.07;;;1.20;;
69744;SDS011;57015;50.120;-5.168;2022-08-20T11:53:49;8.50;;;1.70;;
69744;SDS011;57015;50.120;-5.168;2022-08-20T11:56:15;9.57;;;1.40;;
69744;SDS011;57015;50.120;-5.168;2022-08-20T11:58:43;4.68;;;1.00;;
69744;SDS011;57015;50.120;-5.168;2022-08-20T12:01:08;7.18;;;1.30;;
69744;SDS011;57015;50.120;-5.168;2022-08-20T12:03:34;6.43;;;0.83;;
69744;SDS011;57015;50.120;-5.168;2022-08-20T12:06:00;9.88;;;1.42;;
69744;SDS011;57015;50.120;-5.168;2022-08-20T12:08:25;8.07;;;1.27;;
69744;SDS011;57015;50.120;-5.168;2022-08-20T12:10:50;13.87;;;1.97;;
69744;SDS011;57015;50.120;-5.168;2022-08-20T12:13:16;10.23;;;1.47;;
69744;SDS011;57015;50.120;-5.168;2022-08-20T12:15:41;9.13;;;1.70;;
69744;SDS011;57015;50.120;-5.168;2022-08-20T12:18:08;10.98;;;1.48;;
69744;SDS011;57015;50.120;-5.168;2022-08-20T12:20:34;9.25;;;1.40;;
69744;SDS011;57015;50.120;-5.168;2022-08-20T12:23:00;6.18;;;1.20;;
69744;SDS011;57015;50.120;-5.168;2022-08-20T12:25:25;11.73;;;1.07;;
69744;SDS011;57015;50.120;-5.168;2022-08-20T12:27:51;12.27;;;1.40;;
69744;SDS011;57015;50.120;-5.168;2022-08-20T12:30:18;7.23;;;1.53;;
69744;SDS011;57015;50.120;-5.168;2022-08-20T12:32:45;6.95;;;1.17;;
69744;SDS011;57015;50.120;-5.168;2022-08-20T12:35:11;9.60;;;1.20;;
69744;SDS011;57015;50.120;-5.168;2022-08-20T12:37:38;10.88;;;1.50;;
69744;SDS011;57015;50.120;-5.168;2022-08-20T12:40:04;8.60;;;1.30;;
69744;SDS011;57015;50.120;-5.168;2022-08-20T12:42:31;7.27;;;1.07;;
69744;SDS011;57015;50.120;-5.168;2022-08-20T12:44:57;7.50;;;1.20;;
69744;SDS011;57015;50.120;-5.168;2022-08-20T12:47:27;7.10;;;1.15;;
69744;SDS011;57015;50.120;-5.168;2022-08-20T12:49:58;9.40;;;1.50;;
69744;SDS011;57015;50.120;-5.168;2022-08-20T12:52:25;6.35;;;0.80;;
69744;SDS011;57015;50.120;-5.168;2022-08-20T12:54:51;5.28;;;1.33;;
69744;SDS011;57015;50.120;-5.168;2022-08-20T12:57:26;7.73;;;0.90;;
69744;SDS011;57015;50.120;-5.168;2022-08-20T12:59:53;7.70;;;1.20;;
69744;SDS011;57015;50.120;-5.168;2022-08-20T13:02:22;7.78;;;1.17;;
69744;SDS011;57015;50.120;-5.168;2022-08-20T13:04:48;7.33;;;0.80;;
69744;SDS011;57015;50.120;-5.168;2022-08-20T13:07:13;7.40;;;0.90;;
69744;SDS011;57015;50.120;-5.168;2022-08-20T13:09:39;6.22;;;1.10;;
69744;SDS011;57015;50.120;-5.168;2022-08-20T13:12:05;5.57;;;0.80;;
69744;SDS011;57015;50.120;-5.168;2022-08-20T13:14:31;10.05;;;1.00;;
69744;SDS011;57015;50.120;-5.168;2022-08-20T13:16:57;6.83;;;1.00;;
69744;SDS011;57015;50.120;-5.168;2022-08-20T13:19:24;8.10;;;1.00;;
69744;SDS011;57015;50.120;-5.168;2022-08-20T13:21:50;4.53;;;0.82;;
69744;SDS011;57015;50.120;-5.168;2022-08-20T13:24:16;5.90;;;0.80;;
69744;SDS011;57015;50.120;-5.168;2022-08-20T13:26:41;6.47;;;1.07;;
69744;SDS011;57015;50.120;-5.168;2022-08-20T13:29:07;9.87;;;1.13;;
69744;SDS011;57015;50.120;-5.168;2022-08-20T13:31:32;4.57;;;0.88;;
69744;SDS011;57015;50.120;-5.168;2022-08-20T13:33:57;7.88;;;1.20;;
69744;SDS011;57015;50.120;-5.168;2022-08-20T13:36:23;10.13;;;1.67;;
69744;SDS011;57015;50.120;-5.168;2022-08-20T13:38:48;6.60;;;1.10;;
69744;SDS011;57015;50.120;-5.168;2022-08-20T13:41:14;9.13;;;1.43;;
69744;SDS011;57015;50.120;-5.168;2022-08-20T13:43:39;11.93;;;1.73;;
69744;SDS011;57015;50.120;-5.168;2022-08-20T13:46:04;6.53;;;1.38;;
69744;SDS011;57015;50.120;-5.168;2022-08-20T13:48:30;5.90;;;0.90;;
69744;SDS011;57015;50.120;-5.168;2022-08-20T13:50:56;6.57;;;1.08;;
69744;SDS011;57015;50.120;-5.168;2022-08-20T13:53:22;10.00;;;1.20;;
69744;SDS011;57015;50.120;-5.168;2022-08-20T13:55:48;9.97;;;1.80;;
69744;SDS011;57015;50.120;-5.168;2022-08-20T13:58:13;9.83;;;1.80;;
69744;SDS011;57015;50.120;-5.168;2022-08-20T14:00:39;10.40;;;1.63;;
69744;SDS011;57015;50.120;-5.168;2022-08-20T14:03:04;6.30;;;1.10;;
69744;SDS011;57015;50.120;-5.168;2022-08-20T14:05:30;7.88;;;1.05;;
69744;SDS011;57015;50.120;-5.168;2022-08-20T14:10:36;7.68;;;1.10;;
69744;SDS011;57015;50.120;-5.168;2022-08-20T14:13:02;7.30;;;1.23;;
69744;SDS011;57015;50.120;-5.168;2022-08-20T14:15:27;8.47;;;0.97;;
69744;SDS011;57015;50.120;-5.168;2022-08-20T14:17:54;7.50;;;1.25;;
69744;SDS011;57015;50.120;-5.168;2022-08-20T14:20:21;8.65;;;1.00;;
69744;SDS011;57015;50.120;-5.168;2022-08-20T14:22:49;8.17;;;1.37;;
69744;SDS011;57015;50.120;-5.168;2022-08-20T14:25:15;10.43;;;1.20;;
69744;SDS011;57015;50.120;-5.168;2022-08-20T14:27:42;5.13;;;1.05;;
69744;SDS011;57015;50.120;-5.168;2022-08-20T14:30:09;8.13;;;1.47;;
69744;SDS011;57015;50.120;-5.168;2022-08-20T14:32:36;10.80;;;1.15;;
69744;SDS011;57015;50.120;-5.168;2022-08-20T14:35:02;12.20;;;1.60;;
69744;SDS011;57015;50.120;-5.168;2022-08-20T14:37:31;9.40;;;1.30;;
69744;SDS011;57015;50.120;-5.168;2022-08-20T14:39:59;8.80;;;1.50;;